createdAt,value
2022-10-04T00:00:10.486Z,4.05
2022-10-04T00:02:40.497Z,3.50
2022-10-04T00:05:15.692Z,3.50
2022-10-04T00:07:47.986Z,3.35
2022-10-04T00:10:20.493Z,3.33
2022-10-04T00:12:51.801Z,3.55
2022-10-04T00:15:26.125Z,3.38
2022-10-04T00:18:19.410Z,3.40
2022-10-04T00:21:00.509Z,2.80
2022-10-04T00:23:42.226Z,3.13
2022-10-04T00:26:29.214Z,3.22
2022-10-04T00:28:57.750Z,3.30
2022-10-04T00:31:29.124Z,3.08
2022-10-04T00:34:15.082Z,3.10
2022-10-04T00:36:53.462Z,3.65
2022-10-04T00:39:39.812Z,3.42
2022-10-04T00:42:25.279Z,3.55
2022-10-04T00:44:57.997Z,3.47
2022-10-04T00:47:33.168Z,3.67
2022-10-04T00:50:09.898Z,3.60
2022-10-04T00:52:44.922Z,3.35
2022-10-04T00:55:22.862Z,4.00
2022-10-04T00:57:59.334Z,3.90
2022-10-04T01:00:33.550Z,3.80
2022-10-04T01:03:07.613Z,3.53
2022-10-04T01:05:40.677Z,4.32
2022-10-04T01:08:11.718Z,3.95
2022-10-04T01:10:44.964Z,3.88
2022-10-04T01:13:18.604Z,3.47
2022-10-04T01:15:55.224Z,3.67
2022-10-04T01:18:33.190Z,4.05
2022-10-04T01:21:05.980Z,3.50
2022-10-04T01:23:46.734Z,3.72
2022-10-04T01:26:41.209Z,3.50
2022-10-04T01:29:15.053Z,3.80
2022-10-04T01:31:46.317Z,3.70
2022-10-04T01:34:17.807Z,4.20
2022-10-04T01:36:48.670Z,3.63
2022-10-04T01:39:20.268Z,3.90
2022-10-04T01:41:54.013Z,3.92
2022-10-04T01:44:29.380Z,3.53
2022-10-04T01:47:00.831Z,4.07
2022-10-04T01:49:32.705Z,4.28
2022-10-04T01:52:06.421Z,4.43
2022-10-04T01:54:39.477Z,4.10
2022-10-04T01:57:15.120Z,4.05
2022-10-04T01:59:50.423Z,3.97
2022-10-04T02:02:25.789Z,4.00
2022-10-04T02:04:57.153Z,4.28
2022-10-04T02:07:29.383Z,4.50
2022-10-04T02:10:02.536Z,4.32
2022-10-04T02:12:32.685Z,3.80
2022-10-04T02:15:03.553Z,3.97
2022-10-04T02:17:35.997Z,4.53
2022-10-04T02:20:09.697Z,4.22
2022-10-04T02:22:38.796Z,3.88
2022-10-04T02:25:10.615Z,4.10
2022-10-04T02:27:39.283Z,4.00
2022-10-04T02:30:10.542Z,3.65
2022-10-04T02:32:59.728Z,3.95
2022-10-04T02:35:34.151Z,4.05
2022-10-04T02:38:10.464Z,3.90
2022-10-04T02:40:45.960Z,3.75
2022-10-04T02:43:19.854Z,3.45
2022-10-04T02:45:53.575Z,3.92
2022-10-04T02:48:35.908Z,4.15
2022-10-04T02:51:16.647Z,4.28
2022-10-04T02:53:51.693Z,3.42
2022-10-04T02:56:23.314Z,4.53
2022-10-04T02:58:52.854Z,4.00
2022-10-04T03:01:27.526Z,4.22
2022-10-04T03:03:57.542Z,3.83
2022-10-04T03:06:32.889Z,5.18
2022-10-04T03:09:04.436Z,4.03
2022-10-04T03:11:36.945Z,4.10
2022-10-04T03:14:10.260Z,4.07
2022-10-04T03:16:41.749Z,3.97
2022-10-04T03:19:11.922Z,4.60
2022-10-04T03:21:43.400Z,4.10
2022-10-04T03:24:17.749Z,4.30
2022-10-04T03:26:49.944Z,4.32
2022-10-04T03:29:20.036Z,4.47
2022-10-04T03:31:51.116Z,4.00
2022-10-04T03:34:24.277Z,4.20
2022-10-04T03:36:56.240Z,4.15
2022-10-04T03:39:33.540Z,3.90
2022-10-04T03:42:09.170Z,3.90
2022-10-04T03:44:38.410Z,4.28
2022-10-04T03:47:12.097Z,4.07
2022-10-04T03:49:46.232Z,4.00
2022-10-04T03:52:22.056Z,4.88
2022-10-04T03:54:53.538Z,4.60
2022-10-04T03:57:24.452Z,4.28
2022-10-04T03:59:53.669Z,4.60
2022-10-04T04:02:31.670Z,4.53
2022-10-04T04:05:07.389Z,5.28
2022-10-04T04:07:41.070Z,4.43
2022-10-04T04:10:17.244Z,4.78
2022-10-04T04:12:52.617Z,4.40
2022-10-04T04:15:21.789Z,4.60
2022-10-04T04:17:53.395Z,4.93
2022-10-04T04:20:25.805Z,5.18
2022-10-04T04:23:00.727Z,4.93
2022-10-04T04:25:32.227Z,5.18
2022-10-04T04:28:14.519Z,5.10
2022-10-04T04:30:47.774Z,5.30
2022-10-04T04:33:25.560Z,5.63
2022-10-04T04:36:04.150Z,6.00
2022-10-04T04:38:35.355Z,5.90
2022-10-04T04:41:10.917Z,6.30
2022-10-04T04:43:44.802Z,5.45
2022-10-04T04:46:27.060Z,5.45
2022-10-04T04:49:01.819Z,5.57
2022-10-04T04:51:32.253Z,5.60
2022-10-04T04:54:03.488Z,5.30
2022-10-04T04:56:32.382Z,5.15
2022-10-04T04:59:05.803Z,5.20
2022-10-04T05:01:37.112Z,4.55
2022-10-04T05:04:16.181Z,5.43
2022-10-04T05:06:46.252Z,4.93
2022-10-04T05:09:24.587Z,4.55
2022-10-04T05:11:58.232Z,4.70
2022-10-04T05:14:30.991Z,5.18
2022-10-04T05:16:59.526Z,4.57
2022-10-04T05:19:31.114Z,5.00
2022-10-04T05:22:02.141Z,5.32
2022-10-04T05:24:32.887Z,4.55
2022-10-04T05:27:04.386Z,4.90
2022-10-04T05:29:38.682Z,4.70
2022-10-04T05:32:22.650Z,4.45
2022-10-04T05:34:52.963Z,4.30
2022-10-04T05:37:45.352Z,5.07
2022-10-04T05:40:36.480Z,4.60
2022-10-04T05:43:23.162Z,4.60
2022-10-04T05:46:27.846Z,5.15
2022-10-04T05:49:04.159Z,4.80
2022-10-04T05:51:38.170Z,5.00
2022-10-04T05:54:10.126Z,4.57
2022-10-04T05:57:05.016Z,5.20
2022-10-04T05:59:47.324Z,5.15
2022-10-04T06:02:31.971Z,5.00
2022-10-04T06:05:10.798Z,4.45
2022-10-04T06:07:44.036Z,4.90
2022-10-04T06:10:45.118Z,4.85
2022-10-04T06:13:30.002Z,5.30
2022-10-04T06:16:14.135Z,4.80
2022-10-04T06:18:59.973Z,4.80
2022-10-04T06:21:31.217Z,4.68
2022-10-04T06:24:04.426Z,4.97
2022-10-04T06:26:40.418Z,5.07
2022-10-04T06:29:14.838Z,4.50
2022-10-04T06:32:13.657Z,5.18
2022-10-04T06:35:09.872Z,5.50
2022-10-04T06:37:58.488Z,4.88
2022-10-04T06:40:43.107Z,4.78
2022-10-04T06:43:30.879Z,4.57
2022-10-04T06:46:12.601Z,4.60
2022-10-04T06:48:56.503Z,4.57
2022-10-04T06:51:46.620Z,4.20
2022-10-04T06:54:32.338Z,4.35
2022-10-04T06:57:22.178Z,5.05
2022-10-04T07:00:06.593Z,4.70
2022-10-04T07:02:41.109Z,4.80
2022-10-04T07:05:19.793Z,4.32
2022-10-04T07:08:06.466Z,4.35
2022-10-04T07:10:42.210Z,5.05
2022-10-04T07:13:44.149Z,4.07
2022-10-04T07:16:28.722Z,4.82
2022-10-04T07:19:29.193Z,5.22
2022-10-04T07:22:05.174Z,5.15
2022-10-04T07:24:47.250Z,5.63
2022-10-04T07:27:21.041Z,4.95
2022-10-04T07:29:54.673Z,5.03
2022-10-04T07:32:26.785Z,4.95
2022-10-04T07:35:02.101Z,5.38
2022-10-04T07:37:34.941Z,5.20
2022-10-04T07:40:08.595Z,5.75
2022-10-04T07:42:46.658Z,5.07
2022-10-04T07:45:20.721Z,4.93
2022-10-04T07:47:49.373Z,5.57
2022-10-04T07:50:23.573Z,5.97
2022-10-04T07:52:57.642Z,5.18
2022-10-04T07:55:33.117Z,5.85
2022-10-04T07:58:19.583Z,5.45
2022-10-04T08:00:53.565Z,5.70
2022-10-04T08:03:42.897Z,5.90
2022-10-04T08:06:19.632Z,5.40
2022-10-04T08:09:16.695Z,6.10
2022-10-04T08:11:54.624Z,6.03
2022-10-04T08:14:36.285Z,5.10
2022-10-04T08:17:18.176Z,5.47
2022-10-04T08:19:58.638Z,5.50
2022-10-04T08:22:40.937Z,5.13
2022-10-04T08:25:19.266Z,5.50
2022-10-04T08:28:18.384Z,5.10
2022-10-04T08:31:09.262Z,5.28
2022-10-04T08:33:58.878Z,5.22
2022-10-04T08:36:43.578Z,4.82
2022-10-04T08:39:26.725Z,5.10
2022-10-04T08:42:32.117Z,4.95
2022-10-04T08:45:43.737Z,5.38
2022-10-04T08:48:53.921Z,4.85
2022-10-04T08:51:54.860Z,4.90
2022-10-04T08:55:14.375Z,4.55
2022-10-04T08:58:23.467Z,4.70
2022-10-04T09:00:59.866Z,4.72
2022-10-04T09:04:12.266Z,4.90
2022-10-04T09:06:54.446Z,5.13
2022-10-04T09:10:05.361Z,4.90
2022-10-04T09:12:49.306Z,5.38
2022-10-04T09:15:54.425Z,4.95
2022-10-04T09:18:32.826Z,4.80
2022-10-04T09:21:11.253Z,5.03
2022-10-04T09:24:12.948Z,4.35
2022-10-04T09:26:47.413Z,4.60
2022-10-04T09:29:38.042Z,4.80
2022-10-04T09:32:36.996Z,4.35
2022-10-04T09:35:32.036Z,3.97
2022-10-04T09:38:28.258Z,4.90
2022-10-04T09:41:12.950Z,5.15
2022-10-04T09:44:17.483Z,4.03
2022-10-04T09:46:57.903Z,5.10
2022-10-04T09:49:47.981Z,4.45
2022-10-04T09:52:30.808Z,4.03
2022-10-04T09:55:18.656Z,4.68
2022-10-04T09:58:03.195Z,4.15
2022-10-04T10:00:41.079Z,4.15
2022-10-04T10:03:28.193Z,3.97
2022-10-04T10:06:23.169Z,3.88
2022-10-04T10:09:07.611Z,3.83
2022-10-04T10:12:05.154Z,4.10
2022-10-04T10:15:02.207Z,3.88
2022-10-04T10:17:40.118Z,3.78
2022-10-04T10:20:30.835Z,3.78
2022-10-04T10:23:15.951Z,4.00
2022-10-04T10:26:01.450Z,3.38
2022-10-04T10:28:47.949Z,4.00
2022-10-04T10:31:36.979Z,3.65
2022-10-04T10:34:31.024Z,3.65
2022-10-04T10:37:09.077Z,3.50
2022-10-04T10:40:08.034Z,3.80
2022-10-04T10:43:15.450Z,4.15
2022-10-04T10:45:58.855Z,3.80
2022-10-04T10:48:41.013Z,3.47
2022-10-04T10:51:20.372Z,3.40
2022-10-04T10:54:25.107Z,4.03
2022-10-04T10:57:07.833Z,3.08
2022-10-04T11:00:11.784Z,3.33
2022-10-04T11:03:14.644Z,3.55
2022-10-04T11:06:17.710Z,4.00
2022-10-04T11:09:23.323Z,3.80
2022-10-04T11:12:31.452Z,4.03
2022-10-04T11:15:38.447Z,3.40
2022-10-04T11:18:45.153Z,3.80
2022-10-04T11:21:35.702Z,3.60
2022-10-04T11:24:34.418Z,3.70
2022-10-04T11:27:28.367Z,3.42
2022-10-04T11:30:15.493Z,3.53
2022-10-04T11:33:23.085Z,3.55
2022-10-04T11:36:25.904Z,3.45
2022-10-04T11:39:06.731Z,3.90
2022-10-04T11:41:50.207Z,3.60
2022-10-04T11:44:43.926Z,3.55
2022-10-04T11:47:25.269Z,3.28
2022-10-04T11:50:21.165Z,3.42
2022-10-04T11:53:19.090Z,3.60
2022-10-04T11:56:05.310Z,3.28
2022-10-04T11:58:55.937Z,3.22
2022-10-04T12:02:02.769Z,3.38
2022-10-04T12:04:53.704Z,4.10
2022-10-04T12:07:34.820Z,3.65
2022-10-04T12:10:20.649Z,3.63
2022-10-04T12:13:30.471Z,3.38
2022-10-04T12:16:39.403Z,3.42
2022-10-04T12:19:47.037Z,3.17
2022-10-04T12:23:00.270Z,3.45
2022-10-04T12:25:59.956Z,3.80
2022-10-04T12:29:10.773Z,3.60
2022-10-04T12:31:44.013Z,3.63
2022-10-04T12:34:21.342Z,3.65
2022-10-04T12:37:05.152Z,3.45
2022-10-04T12:39:49.598Z,3.58
2022-10-04T12:42:32.407Z,2.92
2022-10-04T12:45:25.180Z,3.25
2022-10-04T12:48:03.009Z,3.80
2022-10-04T12:50:46.846Z,3.28
2022-10-04T12:53:31.845Z,3.35
2022-10-04T12:56:21.838Z,3.65
2022-10-04T12:59:03.586Z,3.55
2022-10-04T13:01:38.228Z,3.03
2022-10-04T13:04:29.137Z,3.38
2022-10-04T13:07:19.747Z,3.28
2022-10-04T13:10:22.454Z,4.03
2022-10-04T13:13:28.594Z,3.30
2022-10-04T13:19:09.478Z,3.10
2022-10-04T13:22:12.061Z,3.53
2022-10-04T13:24:58.124Z,3.17
2022-10-04T13:27:35.077Z,3.35
2022-10-04T13:30:15.736Z,3.30
2022-10-04T13:32:52.354Z,2.92
2022-10-04T13:35:26.659Z,3.28
2022-10-04T13:38:24.063Z,4.25
2022-10-04T13:41:13.698Z,3.90
2022-10-04T13:43:55.759Z,3.22
2022-10-04T13:46:39.113Z,3.65
2022-10-04T13:49:28.702Z,4.03
2022-10-04T13:52:27.309Z,3.60
2022-10-04T13:55:34.723Z,2.65
2022-10-04T13:58:20.753Z,3.10
2022-10-04T14:01:31.109Z,3.15
2022-10-04T14:04:14.501Z,3.20
2022-10-04T14:07:20.468Z,3.05
2022-10-04T14:10:38.439Z,3.08
2022-10-04T14:13:36.713Z,3.03
2022-10-04T14:16:36.084Z,2.75
2022-10-04T14:19:45.596Z,2.78
2022-10-04T14:23:05.170Z,2.97
2022-10-04T14:26:07.483Z,3.20
2022-10-04T14:28:58.236Z,2.88
2022-10-04T14:31:52.708Z,2.90
2022-10-04T14:34:47.746Z,2.92
2022-10-04T14:37:43.329Z,3.00
2022-10-04T14:40:33.502Z,2.80
2022-10-04T14:43:34.308Z,3.08
2022-10-04T14:46:16.718Z,2.90
2022-10-04T14:49:02.920Z,3.42
2022-10-04T14:51:50.369Z,5.50
2022-10-04T14:54:32.613Z,5.90
2022-10-04T14:57:04.442Z,3.30
2022-10-04T14:59:56.061Z,2.65
2022-10-04T15:02:49.338Z,3.72
2022-10-04T15:05:36.040Z,2.70
2022-10-04T15:08:42.089Z,2.70
2022-10-04T15:11:15.551Z,2.88
2022-10-04T15:13:55.490Z,3.03
2022-10-04T15:16:37.253Z,2.70
2022-10-04T15:19:12.639Z,2.88
2022-10-04T15:21:52.034Z,2.90
2022-10-04T15:24:27.581Z,2.78
2022-10-04T15:27:24.373Z,2.38
2022-10-04T15:30:03.258Z,3.88
2022-10-04T15:32:38.403Z,3.33
2022-10-04T15:35:23.806Z,2.85
2022-10-04T15:37:59.244Z,2.95
2022-10-04T15:40:37.882Z,2.90
2022-10-04T15:43:24.997Z,3.08
2022-10-04T15:46:32.523Z,3.10
2022-10-04T15:49:17.909Z,3.10
2022-10-04T15:52:26.359Z,2.60
2022-10-04T15:55:23.828Z,2.97
2022-10-04T15:58:16.854Z,3.38
2022-10-04T16:01:03.064Z,2.97
2022-10-04T16:03:41.145Z,3.15
2022-10-04T16:06:14.266Z,2.63
2022-10-04T16:09:01.249Z,3.20
2022-10-04T16:11:59.850Z,3.25
2022-10-04T16:14:42.373Z,3.05
2022-10-04T16:17:44.034Z,2.58
2022-10-04T16:20:46.551Z,3.15
2022-10-04T16:23:28.873Z,3.40
2022-10-04T16:25:59.013Z,3.00
2022-10-04T16:28:44.630Z,3.38
2022-10-04T16:31:27.941Z,3.13
2022-10-04T16:34:03.701Z,3.40
2022-10-04T16:36:48.367Z,3.20
2022-10-04T16:39:51.833Z,3.65
2022-10-04T16:42:26.774Z,3.42
2022-10-04T16:45:00.813Z,3.75
2022-10-04T16:47:34.484Z,3.95
2022-10-04T16:50:04.884Z,4.00
2022-10-04T16:52:54.472Z,3.63
2022-10-04T16:55:44.251Z,3.53
2022-10-04T16:58:43.017Z,2.60
2022-10-04T17:01:44.833Z,2.63
2022-10-04T17:04:32.702Z,2.58
2022-10-04T17:07:06.877Z,2.33
2022-10-04T17:09:41.648Z,2.00
2022-10-04T17:12:18.929Z,2.15
2022-10-04T17:15:20.844Z,2.47
2022-10-04T17:17:55.977Z,2.10
2022-10-04T17:20:38.457Z,2.40
2022-10-04T17:23:22.418Z,2.20
2022-10-04T17:26:00.191Z,2.25
2022-10-04T17:28:31.241Z,2.63
2022-10-04T17:31:09.669Z,2.65
2022-10-04T17:33:56.957Z,2.28
2022-10-04T17:36:43.228Z,2.45
2022-10-04T17:39:38.990Z,2.70
2022-10-04T17:42:21.210Z,2.58
2022-10-04T17:45:07.743Z,2.55
2022-10-04T17:47:57.764Z,2.53
2022-10-04T17:51:02.378Z,3.10
2022-10-04T17:53:53.758Z,2.67
2022-10-04T17:56:31.091Z,2.28
2022-10-04T17:59:00.428Z,2.50
2022-10-04T18:01:35.290Z,2.55
2022-10-04T18:04:10.038Z,2.60
2022-10-04T18:06:43.818Z,2.60
2022-10-04T18:09:22.961Z,2.53
2022-10-04T18:11:56.849Z,2.35
2022-10-04T18:14:47.217Z,2.50
2022-10-04T18:17:28.971Z,2.70
2022-10-04T18:20:15.438Z,2.70
2022-10-04T18:22:48.124Z,2.72
2022-10-04T18:25:23.474Z,2.33
2022-10-04T18:28:02.176Z,2.83
2022-10-04T18:30:30.970Z,3.58
2022-10-04T18:32:59.706Z,2.60
2022-10-04T18:35:29.893Z,2.92
2022-10-04T18:38:13.217Z,3.40
2022-10-04T18:40:55.166Z,4.25
2022-10-04T18:43:29.742Z,5.15
2022-10-04T18:46:04.358Z,4.53
2022-10-04T18:48:44.122Z,3.60
2022-10-04T18:51:27.293Z,3.97
2022-10-04T18:54:10.045Z,3.70
2022-10-04T18:56:50.897Z,3.50
2022-10-04T18:59:50.707Z,3.03
2022-10-04T19:02:26.138Z,3.30
2022-10-04T19:05:02.453Z,2.70
2022-10-04T19:07:39.358Z,3.17
2022-10-04T19:10:16.884Z,2.67
2022-10-04T19:13:02.495Z,2.80
2022-10-04T19:15:43.385Z,2.90
2022-10-04T19:18:28.322Z,2.80
2022-10-04T19:21:08.625Z,3.13
2022-10-04T19:23:48.196Z,3.10
2022-10-04T19:26:32.281Z,3.13
2022-10-04T19:29:15.079Z,2.67
2022-10-04T19:31:51.695Z,3.03
2022-10-04T19:34:28.301Z,3.17
2022-10-04T19:37:02.285Z,3.20
2022-10-04T19:39:41.100Z,3.03
2022-10-04T19:42:14.266Z,2.97
2022-10-04T19:45:02.714Z,3.05
2022-10-04T19:47:48.854Z,3.60
2022-10-04T19:50:23.824Z,3.15
2022-10-04T19:52:54.885Z,2.90
2022-10-04T19:55:28.813Z,3.08
2022-10-04T19:58:08.176Z,3.20
2022-10-04T20:00:38.085Z,3.00
2022-10-04T20:03:12.452Z,2.97
2022-10-04T20:05:45.089Z,3.30
2022-10-04T20:08:15.237Z,2.67
2022-10-04T20:10:44.930Z,3.35
2022-10-04T20:13:24.063Z,3.47
2022-10-04T20:15:56.229Z,3.00
2022-10-04T20:19:05.045Z,3.35
2022-10-04T20:21:34.036Z,3.50
2022-10-04T20:24:02.745Z,3.75
2022-10-04T20:26:56.563Z,3.72
2022-10-04T20:30:03.854Z,3.60
2022-10-04T20:32:56.397Z,4.78
2022-10-04T20:36:05.827Z,3.90
2022-10-04T20:38:44.718Z,4.20
2022-10-04T20:42:08.175Z,3.60
2022-10-04T20:44:54.184Z,3.53
2022-10-04T20:47:40.856Z,3.40
2022-10-04T20:50:21.008Z,3.40
2022-10-04T20:52:53.706Z,3.42
2022-10-04T20:55:28.013Z,3.30
2022-10-04T20:58:01.860Z,3.58
2022-10-04T21:00:34.786Z,3.63
2022-10-04T21:03:22.873Z,3.60
2022-10-04T21:06:04.929Z,3.88
2022-10-04T21:08:34.191Z,3.70
2022-10-04T21:11:19.138Z,3.25
2022-10-04T21:13:59.082Z,3.20
2022-10-04T21:16:35.476Z,3.42
2022-10-04T21:19:53.251Z,3.70
2022-10-04T21:22:37.818Z,3.83
2022-10-04T21:25:31.085Z,3.65
2022-10-04T21:28:33.878Z,4.05
2022-10-04T21:31:04.043Z,3.50
2022-10-04T21:33:33.696Z,4.30
2022-10-04T21:36:02.429Z,4.07
2022-10-04T21:38:32.649Z,3.97
2022-10-04T21:41:01.196Z,4.40
2022-10-04T21:43:29.761Z,4.75
2022-10-04T21:45:58.299Z,3.78
2022-10-04T21:48:27.514Z,3.97
2022-10-04T21:50:56.538Z,4.88
2022-10-04T21:53:25.036Z,4.07
2022-10-04T21:55:54.909Z,4.30
2022-10-04T21:58:23.414Z,4.07
2022-10-04T22:00:51.889Z,4.20
2022-10-04T22:03:20.422Z,3.90
2022-10-04T22:05:48.894Z,4.22
2022-10-04T22:08:17.421Z,3.90
2022-10-04T22:10:47.177Z,4.65
2022-10-04T22:13:17.090Z,4.90
2022-10-04T22:15:45.669Z,4.72
2022-10-04T22:18:14.161Z,5.10
2022-10-04T22:20:42.712Z,5.10
2022-10-04T22:23:17.267Z,5.43
2022-10-04T22:25:46.022Z,5.20
2022-10-04T22:28:22.031Z,5.28
2022-10-04T22:30:52.057Z,5.45
2022-10-04T22:33:31.822Z,5.75
2022-10-04T22:36:06.501Z,5.72
2022-10-04T22:38:35.018Z,5.55
2022-10-04T22:41:06.354Z,5.43
2022-10-04T22:43:36.434Z,5.10
2022-10-04T22:46:05.163Z,5.70
2022-10-04T22:48:33.882Z,5.68
2022-10-04T22:51:02.397Z,5.18
2022-10-04T22:53:30.910Z,5.35
2022-10-04T22:56:00.435Z,5.13
2022-10-04T22:58:28.969Z,4.90
2022-10-04T23:00:58.794Z,5.35
2022-10-04T23:03:31.430Z,5.10
2022-10-04T23:06:00.446Z,4.47
2022-10-04T23:08:29.462Z,4.30
2022-10-04T23:11:00.436Z,4.53
2022-10-04T23:13:29.151Z,4.63
2022-10-04T23:16:01.064Z,3.90
2022-10-04T23:18:30.378Z,4.35
2022-10-04T23:21:01.961Z,4.80
2022-10-04T23:23:32.376Z,4.35
2022-10-04T23:26:00.911Z,4.55
2022-10-04T23:28:29.479Z,4.25
2022-10-04T23:31:05.829Z,4.55
2022-10-04T23:33:35.183Z,4.63
2022-10-04T23:36:03.656Z,4.35
2022-10-04T23:38:32.121Z,4.03
2022-10-04T23:41:00.990Z,4.65
2022-10-04T23:43:31.807Z,4.72
2022-10-04T23:46:02.444Z,4.10
2022-10-04T23:48:32.275Z,4.53
2022-10-04T23:51:00.924Z,4.30
2022-10-04T23:53:32.372Z,4.50
2022-10-04T23:56:05.533Z,4.72
2022-10-04T23:58:37.329Z,4.47
